Time;durP1;ratioP1;P1;durP2;ratioP2;P2;SDS_P1;SDS_P2;PMS_P1;PMS_P2;Temp;Humidity;BMP_temperature;BMP_pressure;BME280_temperature;BME280_humidity;BME280_pressure;Samples;Min_cycle;Max_cycle;Signal;HPM_P1;HPM_P2
2023/03/05 00:00:49;;;;;;;;;74.75;56.50;;;;;6.62;60.48;99359.34;5094424;27;45507;-80
2023/03/05 00:03:15;;;;;;;;;77.25;59.25;;;;;6.58;60.29;99360.31;5093617;27;46103;-80
2023/03/05 00:05:40;;;;;;;;;84.25;61.75;;;;;6.56;60.64;99359.47;5093841;27;45383;-80
2023/03/05 00:08:06;;;;;;;;;73.75;55.25;;;;;6.54;60.83;99363.88;5094897;27;46388;-80
2023/03/05 00:10:31;;;;;;;;;81.00;60.00;;;;;6.50;61.04;99360.47;5094535;27;45405;-80
2023/03/05 00:12:56;;;;;;;;;74.75;57.00;;;;;6.49;61.37;99364.00;5094603;27;45872;-80
2023/03/05 00:15:22;;;;;;;;;73.25;57.25;;;;;6.43;61.29;99358.00;5093303;27;45323;-80
2023/03/05 00:17:47;;;;;;;;;74.00;58.25;;;;;6.40;61.81;99366.78;5094885;27;46420;-80
2023/03/05 00:20:13;;;;;;;;;72.50;54.50;;;;;6.35;62.04;99363.41;5093455;27;45333;-80
2023/03/05 00:22:38;;;;;;;;;76.75;56.00;;;;;6.30;61.79;99358.25;5093974;27;45372;-80
2023/03/05 00:25:04;;;;;;;;;72.25;56.50;;;;;6.26;61.95;99353.94;5094760;27;45404;-80
2023/03/05 00:27:29;;;;;;;;;75.00;57.00;;;;;6.23;61.73;99367.09;5095193;27;46211;-80
2023/03/05 00:29:55;;;;;;;;;75.00;57.25;;;;;6.17;61.57;99369.84;5095461;27;45330;-80
2023/03/05 00:32:20;;;;;;;;;72.25;56.75;;;;;6.14;61.75;99366.41;5094732;27;45452;-80
2023/03/05 00:34:48;;;;;;;;;79.25;58.00;;;;;6.12;62.04;99370.81;5094489;27;45322;-80
2023/03/05 00:37:15;;;;;;;;;79.00;56.75;;;;;6.06;62.22;99374.38;5093767;27;45809;-79
2023/03/05 00:39:40;;;;;;;;;82.75;58.00;;;;;6.02;62.67;99369.25;5094617;27;45371;-80
2023/03/05 00:42:06;;;;;;;;;74.75;58.25;;;;;5.99;63.32;99377.16;5095066;27;45371;-80
2023/03/05 00:44:32;;;;;;;;;77.00;59.25;;;;;5.91;63.23;99377.28;5095050;27;45427;-80
2023/03/05 00:46:57;;;;;;;;;75.25;58.75;;;;;5.86;63.17;99377.34;5093240;27;46831;-79
2023/03/05 00:49:22;;;;;;;;;73.25;57.50;;;;;5.79;63.15;99369.59;5093452;27;45393;-80
2023/03/05 00:51:54;;;;;;;;;71.75;56.75;;;;;5.75;63.06;99373.16;5094941;27;45843;-80
2023/03/05 00:54:19;;;;;;;;;73.75;54.50;;;;;5.73;63.72;99367.09;5094403;27;45427;-80
2023/03/05 00:56:46;;;;;;;;;84.00;59.25;;;;;5.71;63.67;99374.94;5093090;27;45766;-80
2023/03/05 00:59:11;;;;;;;;;74.75;56.50;;;;;5.71;63.75;99380.19;5094219;27;45389;-79
2023/03/05 01:01:37;;;;;;;;;77.50;54.75;;;;;5.68;63.75;99380.25;5094105;27;45455;-80
2023/03/05 01:04:02;;;;;;;;;79.25;58.50;;;;;5.67;63.85;99383.75;5094855;27;45523;-79
2023/03/05 01:06:28;;;;;;;;;76.00;57.25;;;;;5.64;64.04;99378.56;5095016;27;45459;-79
2023/03/05 01:08:55;;;;;;;;;75.25;57.25;;;;;5.65;64.06;99379.44;5094545;27;45422;-79
2023/03/05 01:11:21;;;;;;;;;64.25;50.75;;;;;5.64;63.81;99370.72;5094810;27;45359;-80
2023/03/05 01:13:46;;;;;;;;;79.75;59.50;;;;;5.67;64.04;99367.22;5093144;27;45445;-79
2023/03/05 01:16:11;;;;;;;;;77.00;57.00;;;;;5.67;63.55;99373.31;5094468;27;46659;-79
2023/03/05 01:18:38;;;;;;;;;67.50;51.25;;;;;5.66;64.29;99371.56;5094635;27;45374;-79
2023/03/05 01:21:04;;;;;;;;;74.50;54.00;;;;;5.67;63.82;99375.06;5094361;27;45358;-79
2023/03/05 01:23:33;;;;;;;;;74.75;56.00;;;;;5.65;64.38;99372.47;5094273;27;45475;-80
2023/03/05 01:25:59;;;;;;;;;75.75;56.75;;;;;5.63;63.55;99370.75;5094420;27;45425;-79
2023/03/05 01:28:25;;;;;;;;;76.00;54.25;;;;;5.60;63.39;99362.06;5094518;27;45380;-79
2023/03/05 01:30:51;;;;;;;;;75.00;55.25;;;;;5.59;63.53;99365.56;5094346;27;45457;-79
2023/03/05 01:33:17;;;;;;;;;75.00;55.00;;;;;5.59;63.60;99362.94;5096177;27;45354;-80
2023/03/05 01:35:45;;;;;;;;;67.25;53.50;;;;;5.57;63.90;99362.09;5095965;27;48348;-79
2023/03/05 01:38:10;;;;;;;;;61.75;51.50;;;;;5.56;63.81;99360.38;5097021;27;45484;-79
2023/03/05 01:40:36;;;;;;;;;71.00;55.25;;;;;5.57;64.05;99361.25;5095823;27;45433;-80
2023/03/05 01:43:10;;;;;;;;;69.00;52.25;;;;;5.58;64.13;99362.97;5097249;27;45400;-79
2023/03/05 01:45:37;;;;;;;;;71.00;54.25;;;;;5.55;64.75;99356.03;5095475;27;47305;-79
2023/03/05 01:48:02;;;;;;;;;72.00;55.00;;;;;5.52;64.60;99347.41;5097558;27;45370;-79
2023/03/05 01:50:28;;;;;;;;;70.75;54.75;;;;;5.47;64.50;99351.84;5097620;27;45537;-80
2023/03/05 01:53:02;;;;;;;;;71.00;55.00;;;;;5.44;63.95;99349.25;5097539;27;45410;-79
2023/03/05 01:55:31;;;;;;;;;76.25;53.25;;;;;5.41;64.25;99342.31;5095642;27;48272;-80
2023/03/05 01:58:03;;;;;;;;;68.50;54.00;;;;;5.38;64.83;99333.66;5095882;27;45315;-79
2023/03/05 02:00:38;;;;;;;;;69.00;53.75;;;;;5.35;64.84;99337.22;5097301;27;45465;-79
2023/03/05 02:03:08;;;;;;;;;68.75;54.25;;;;;5.35;65.18;99338.97;5097477;27;45517;-79
2023/03/05 02:05:43;;;;;;;;;75.00;57.00;;;;;5.31;64.74;99332.91;5097381;27;45427;-79
2023/03/05 02:08:20;;;;;;;;;76.00;58.50;;;;;5.26;65.18;99338.19;5095917;27;45315;-80
2023/03/05 02:10:51;;;;;;;;;67.25;54.00;;;;;5.22;64.51;99344.34;5095536;27;45317;-79
2023/03/05 02:13:21;;;;;;;;;69.00;52.50;;;;;5.18;65.31;99336.59;5093984;27;45762;-80
2023/03/05 02:15:48;;;;;;;;;66.75;53.50;;;;;5.12;64.75;99328.84;5094674;27;47565;-80
2023/03/05 02:18:15;;;;;;;;;66.75;53.25;;;;;5.06;64.63;99327.19;5096767;27;45439;-80
2023/03/05 02:20:47;;;;;;;;;64.25;52.00;;;;;5.03;64.40;99344.63;5097085;27;45288;-79
2023/03/05 02:23:14;;;;;;;;;66.00;49.67;;;;;4.97;64.35;99339.53;5095432;27;45898;-80
2023/03/05 02:25:39;;;;;;;;;65.50;51.25;;;;;4.92;65.32;99331.75;5096466;27;45340;-80
2023/03/05 02:28:17;;;;;;;;;66.25;50.75;;;;;4.88;65.04;99323.06;5096793;27;45427;-80
2023/03/05 02:30:42;;;;;;;;;62.50;47.75;;;;;4.84;65.82;99331.00;5096719;27;45313;-79
2023/03/05 02:33:08;;;;;;;;;60.75;47.50;;;;;4.79;65.58;99328.44;5095430;27;45607;-80
2023/03/05 02:35:34;;;;;;;;;63.25;51.75;;;;;4.77;65.29;99337.19;5095673;27;45782;-80
2023/03/05 02:37:59;;;;;;;;;59.33;47.67;;;;;4.74;64.78;99327.63;5096857;27;45399;-78
2023/03/05 02:40:25;;;;;;;;;62.00;50.00;;;;;4.72;65.00;99329.41;5096576;27;45411;-81
2023/03/05 02:42:50;;;;;;;;;63.33;46.00;;;;;4.72;64.70;99328.53;5096909;27;45452;-78
2023/03/05 02:45:16;;;;;;;;;61.67;46.33;;;;;4.70;64.51;99323.31;5094280;27;47032;-80
2023/03/05 02:47:42;;;;;;;;;53.00;43.00;;;;;4.67;64.04;99315.56;5096065;27;45499;-80
2023/03/05 02:50:10;;;;;;;;;59.00;45.33;;;;;4.65;64.69;99319.94;5096304;27;45432;-80
2023/03/05 02:52:35;;;;;;;;;61.33;46.67;;;;;4.61;64.43;99318.25;5094618;27;45542;-78
2023/03/05 02:55:01;;;;;;;;;57.67;45.67;;;;;4.58;64.06;99320.88;5095797;27;45439;-78
2023/03/05 02:57:26;;;;;;;;;61.33;45.67;;;;;4.56;64.19;99325.25;5096536;27;45418;-78
2023/03/05 02:59:52;;;;;;;;;59.33;45.00;;;;;4.53;64.08;99318.31;5096568;27;45490;-79
2023/03/05 03:02:17;;;;;;;;;68.67;47.33;;;;;4.51;64.51;99314.03;5096576;27;45210;-81
2023/03/05 03:04:44;;;;;;;;;55.67;43.00;;;;;4.50;64.47;99315.78;5096592;27;45372;-78
2023/03/05 03:07:11;;;;;;;;;49.67;43.00;;;;;4.50;64.53;99314.91;5096656;27;45433;-78
2023/03/05 03:09:37;;;;;;;;;57.67;44.33;;;;;4.49;64.74;99316.66;5096155;27;45435;-80
2023/03/05 03:12:05;;;;;;;;;55.00;41.00;;;;;4.49;64.73;99307.97;5096240;27;45361;-79
2023/03/05 03:14:45;;;;;;;;;60.67;44.33;;;;;4.47;64.58;99305.38;5095551;27;46294;-80
2023/03/05 03:17:13;;;;;;;;;59.67;44.67;;;;;4.46;64.19;99305.38;5111254;27;45391;-77
2023/03/05 03:19:40;;;;;;;;;57.67;42.00;;;;;4.45;64.00;99307.13;5095675;27;45365;-79
2023/03/05 03:22:07;;;;;;;;;59.33;44.67;;;;;4.44;63.82;99305.41;5095133;27;45356;-79
2023/03/05 03:24:34;;;;;;;;;64.33;48.33;;;;;4.40;64.13;99306.31;5095080;27;45437;-79
2023/03/05 03:27:00;;;;;;;;;63.00;47.00;;;;;4.38;64.27;99310.69;5095580;27;45404;-79
2023/03/05 03:29:25;;;;;;;;;52.67;42.67;;;;;4.36;63.90;99296.78;5095468;27;45516;-79
2023/03/05 03:31:51;;;;;;;;;62.00;46.33;;;;;4.35;64.18;99302.91;5095730;27;45424;-79
2023/03/05 03:34:17;;;;;;;;;61.33;42.67;;;;;4.34;64.08;99318.59;5095925;27;45484;-79
2023/03/05 03:36:44;;;;;;;;;57.33;40.67;;;;;4.30;64.31;99307.31;5094522;27;45384;-79
2023/03/05 03:39:10;;;;;;;;;56.67;43.67;;;;;4.25;64.35;99316.94;5095653;27;45327;-79
2023/03/05 03:41:40;;;;;;;;;59.33;48.00;;;;;4.21;64.77;99317.84;5095912;27;45315;-79
2023/03/05 03:44:07;;;;;;;;;60.33;47.67;;;;;4.18;64.87;99317.91;5095510;27;46094;-79
2023/03/05 03:46:33;;;;;;;;;67.00;49.33;;;;;4.17;64.62;99318.78;5095822;27;45457;-79
2023/03/05 03:48:58;;;;;;;;;61.67;45.00;;;;;4.13;64.75;99320.56;5095981;27;45507;-79
2023/03/05 03:51:24;;;;;;;;;59.00;45.00;;;;;4.13;64.68;99319.69;5094387;27;45308;-80
2023/03/05 03:53:49;;;;;;;;;61.00;43.33;;;;;4.10;64.93;99309.28;5094213;27;45431;-79
2023/03/05 03:56:15;;;;;;;;;59.33;43.00;;;;;4.06;65.06;99315.41;5094623;27;45375;-79
2023/03/05 03:58:40;;;;;;;;;57.67;45.00;;;;;4.03;65.53;99307.63;5095505;27;45304;-79
2023/03/05 04:01:06;;;;;;;;;52.67;42.33;;;;;4.00;65.41;99305.94;5095185;27;45439;-79
2023/03/05 04:03:31;;;;;;;;;63.00;46.67;;;;;3.99;65.12;99314.63;5094904;27;45350;-79
2023/03/05 04:05:56;;;;;;;;;61.00;44.67;;;;;3.99;65.51;99311.16;5095201;27;45485;-79
2023/03/05 04:08:22;;;;;;;;;61.00;46.33;;;;;3.98;65.44;99312.03;5095063;27;45356;-79
2023/03/05 04:10:47;;;;;;;;;62.00;48.33;;;;;3.96;65.42;99308.59;5095200;27;45417;-79
2023/03/05 04:13:12;;;;;;;;;55.67;42.33;;;;;3.93;65.00;99312.09;5095203;27;46618;-80
2023/03/05 04:15:38;;;;;;;;;59.67;47.33;;;;;3.87;65.59;99317.34;5095155;27;45335;-79
2023/03/05 04:18:03;;;;;;;;;51.00;43.33;;;;;3.84;65.34;99312.19;5095547;27;45282;-79
2023/03/05 04:20:29;;;;;;;;;62.67;44.67;;;;;3.82;65.68;99306.97;5095371;27;45447;-79
2023/03/05 04:23:03;;;;;;;;;62.33;45.33;;;;;3.83;65.69;99302.63;5095229;27;45403;-79
2023/03/05 04:25:28;;;;;;;;;62.67;44.33;;;;;3.81;65.43;99305.25;5094998;27;45482;-79
2023/03/05 04:27:54;;;;;;;;;56.00;40.33;;;;;3.84;65.75;99300.00;5093925;27;45708;-79
2023/03/05 04:30:19;;;;;;;;;60.67;44.33;;;;;3.83;66.06;99297.41;5093907;27;45292;-79
2023/03/05 04:32:44;;;;;;;;;51.33;44.00;;;;;3.82;65.67;99295.69;5095155;27;46269;-80
2023/03/05 04:35:10;;;;;;;;;60.00;44.00;;;;;3.81;65.52;99294.81;5095269;27;45426;-80
2023/03/05 04:37:36;;;;;;;;;61.00;47.00;;;;;3.81;65.70;99299.19;5095195;27;45437;-80
2023/03/05 04:40:02;;;;;;;;;55.00;41.33;;;;;3.80;66.07;99294.84;5094972;27;45441;-80
2023/03/05 04:42:27;;;;;;;;;56.33;45.67;;;;;3.80;65.75;99289.63;5093113;27;47145;-80
2023/03/05 04:44:52;;;;;;;;;58.00;47.00;;;;;3.78;66.19;99288.78;5094481;27;45423;-80
2023/03/05 04:47:18;;;;;;;;;65.75;49.50;;;;;3.76;66.07;99293.13;5094931;27;45400;-80
2023/03/05 04:50:03;;;;;;;;;61.67;45.67;;;;;3.74;66.44;99290.53;5095066;27;45339;-80
2023/03/05 04:52:29;;;;;;;;;60.00;49.00;;;;;3.74;65.54;99289.69;5074471;27;46100;-79
2023/03/05 04:54:54;;;;;;;;;63.00;48.00;;;;;3.73;66.33;99290.56;5087689;27;45360;-80
2023/03/05 04:57:20;;;;;;;;;65.00;48.67;;;;;3.76;66.39;99294.00;5094734;27;45501;-80
2023/03/05 04:59:45;;;;;;;;;58.00;43.33;;;;;3.77;66.20;99282.69;5094036;27;45425;-80
2023/03/05 05:02:11;;;;;;;;;57.33;44.00;;;;;3.78;65.56;99280.94;5094799;27;45490;-79
2023/03/05 05:04:36;;;;;;;;;62.33;48.67;;;;;3.79;66.09;99286.16;5094915;27;45401;-78
2023/03/05 05:07:03;;;;;;;;;63.00;46.33;;;;;3.83;66.16;99289.59;5093677;27;45344;-78
2023/03/05 05:09:29;;;;;;;;;55.67;43.00;;;;;3.84;65.92;99283.50;5096743;27;45319;-80
2023/03/05 05:11:54;;;;;;;;;61.67;43.00;;;;;3.85;65.75;99291.28;5098175;27;46079;-80
2023/03/05 05:14:20;;;;;;;;;57.00;48.00;;;;;3.85;65.60;99280.84;5098195;27;45573;-80
2023/03/05 05:16:45;;;;;;;;;64.67;48.33;;;;;3.81;66.06;99292.22;5098433;27;45455;-80
2023/03/05 05:19:11;;;;;;;;;43.33;40.00;;;;;3.80;66.43;99281.81;5098048;27;45488;-80
2023/03/05 05:21:36;;;;;;;;;60.00;48.75;;;;;3.78;66.42;99286.16;5097317;27;45669;-80
2023/03/05 05:24:02;;;;;;;;;56.00;44.33;;;;;3.76;66.47;99286.19;5097490;27;45508;-80
2023/03/05 05:26:27;;;;;;;;;65.00;48.00;;;;;3.72;65.58;99294.91;5096129;27;45448;-79
2023/03/05 05:28:53;;;;;;;;;61.33;48.00;;;;;3.66;65.75;99291.50;5097742;27;45470;-80
2023/03/05 05:31:18;;;;;;;;;67.33;51.00;;;;;3.63;66.50;99291.53;5097664;27;45748;-80
2023/03/05 05:33:46;;;;;;;;;61.00;46.33;;;;;3.58;65.97;99295.91;5097841;27;45379;-77
2023/03/05 05:36:15;;;;;;;;;69.00;47.67;;;;;3.54;66.82;99292.47;5097581;27;45412;-80
2023/03/05 05:38:40;;;;;;;;;64.75;48.75;;;;;3.50;67.55;99281.22;5113046;27;45473;-80
2023/03/05 05:41:12;;;;;;;;;60.33;47.33;;;;;3.49;67.19;99286.44;5097215;27;46050;-79
2023/03/05 05:43:37;;;;;;;;;65.00;49.67;;;;;3.47;67.63;99286.47;5112560;27;45585;-79
2023/03/05 05:46:05;;;;;;;;;53.67;44.33;;;;;3.47;67.30;99291.69;5095411;27;45372;-79
2023/03/05 05:48:33;;;;;;;;;60.33;46.67;;;;;3.43;66.58;99292.56;5096643;27;45366;-79
2023/03/05 05:50:59;;;;;;;;;61.00;48.33;;;;;3.42;67.20;99290.84;5097106;27;45614;-79
2023/03/05 05:53:25;;;;;;;;;67.25;52.00;;;;;3.45;67.45;99293.44;5096766;27;45511;-79
2023/03/05 05:55:50;;;;;;;;;63.50;48.50;;;;;3.46;67.01;99295.16;5097262;27;45456;-79
2023/03/05 05:58:16;;;;;;;;;56.67;45.67;;;;;3.46;67.02;99289.09;5097079;27;45395;-79
2023/03/05 06:00:41;;;;;;;;;64.33;48.67;;;;;3.45;67.15;99295.16;5096220;27;46060;-79
2023/03/05 06:03:07;;;;;;;;;59.33;46.67;;;;;3.45;67.34;99289.97;5096779;27;45554;-79
2023/03/05 06:05:33;;;;;;;;;66.67;48.00;;;;;3.41;67.06;99286.50;5097303;27;45386;-79
2023/03/05 06:07:59;;;;;;;;;63.00;47.00;;;;;3.37;67.33;99287.41;5096689;27;45638;-79
2023/03/05 06:10:24;;;;;;;;;67.67;49.67;;;;;3.33;67.71;99298.75;5094030;27;46729;-79
2023/03/05 06:12:50;;;;;;;;;57.33;46.67;;;;;3.32;67.63;99296.16;5097281;27;45475;-79
2023/03/05 06:15:15;;;;;;;;;59.25;46.50;;;;;3.32;67.94;99301.38;5097496;27;45568;-79
2023/03/05 06:17:40;;;;;;;;;62.00;46.50;;;;;3.32;68.13;99290.94;5097246;27;45428;-79
2023/03/05 06:20:06;;;;;;;;;44.75;37.75;;;;;3.32;68.04;99291.81;5095933;27;45464;-79
2023/03/05 06:22:35;;;;;;;;;67.25;51.25;;;;;3.32;68.03;99298.75;5095322;27;45412;-79
2023/03/05 06:25:01;;;;;;;;;58.67;46.67;;;;;3.31;68.40;99297.03;5096826;27;45300;-80
2023/03/05 06:27:26;;;;;;;;;72.00;53.25;;;;;3.31;67.83;99302.25;5096983;27;45353;-80
2023/03/05 06:29:55;;;;;;;;;69.00;51.33;;;;;3.33;68.07;99308.31;5095647;27;48070;-80
2023/03/05 06:32:25;;;;;;;;;67.00;50.50;;;;;3.34;68.13;99310.03;5095402;27;45480;-80
2023/03/05 06:34:51;;;;;;;;;58.00;45.67;;;;;3.34;68.41;99313.50;5096890;27;45360;-80
2023/03/05 06:37:17;;;;;;;;;61.33;48.67;;;;;3.33;68.01;99311.78;5096469;27;45384;-79
2023/03/05 06:39:42;;;;;;;;;70.75;47.00;;;;;3.31;67.73;99304.84;5096238;27;45678;-80
2023/03/05 06:42:08;;;;;;;;;70.00;52.75;;;;;3.30;68.23;99305.72;5096297;27;45331;-80
2023/03/05 06:44:38;;;;;;;;;69.50;50.00;;;;;3.33;68.01;99306.56;5096931;27;45456;-79
2023/03/05 06:47:04;;;;;;;;;66.33;50.00;;;;;3.36;68.23;99314.34;5096634;27;45412;-80
2023/03/05 06:49:36;;;;;;;;;66.00;53.00;;;;;3.37;68.16;99312.59;5096547;27;46185;-80
2023/03/05 06:52:05;;;;;;;;;69.75;52.50;;;;;3.37;68.37;99315.19;5096379;27;45422;-79
2023/03/05 06:54:31;;;;;;;;;66.50;51.50;;;;;3.38;68.66;99323.00;5096295;27;45324;-80
2023/03/05 06:56:57;;;;;;;;;58.75;45.00;;;;;3.39;68.35;99313.44;5096219;27;45518;-80
2023/03/05 06:59:22;;;;;;;;;62.75;45.25;;;;;3.37;68.14;99312.59;5095174;27;47226;-79
2023/03/05 07:01:48;;;;;;;;;55.67;45.67;;;;;3.38;68.44;99311.72;5095008;27;45388;-80
2023/03/05 07:04:14;;;;;;;;;57.75;45.50;;;;;3.38;68.09;99309.97;5095328;27;45491;-79
2023/03/05 07:06:41;;;;;;;;;68.00;48.25;;;;;3.37;68.24;99305.66;5095263;27;45263;-79
2023/03/05 07:09:07;;;;;;;;;66.25;49.50;;;;;3.34;68.08;99305.69;5096011;27;45330;-79
2023/03/05 07:11:33;;;;;;;;;69.00;50.75;;;;;3.33;67.85;99301.34;5094865;27;45400;-79
2023/03/05 07:13:59;;;;;;;;;63.25;51.50;;;;;3.34;68.49;99299.63;5096161;27;45389;-79
2023/03/05 07:16:26;;;;;;;;;62.00;49.00;;;;;3.33;67.76;99300.50;5095931;27;45392;-79
2023/03/05 07:18:56;;;;;;;;;66.25;48.50;;;;;3.32;67.99;99298.75;5094545;27;47188;-79
2023/03/05 07:21:27;;;;;;;;;73.25;51.00;;;;;3.33;67.85;99297.88;5095654;27;45387;-79
2023/03/05 07:23:53;;;;;;;;;68.00;52.00;;;;;3.34;67.81;99294.41;5096010;27;45307;-79
2023/03/05 07:26:19;;;;;;;;;67.75;52.00;;;;;3.37;67.89;99290.00;5095979;27;45301;-79
2023/03/05 07:28:48;;;;;;;;;70.50;51.75;;;;;3.43;67.73;99294.31;5095871;27;45581;-80
2023/03/05 07:31:18;;;;;;;;;66.50;51.00;;;;;3.47;67.55;99288.22;5095785;27;45383;-80
2023/03/05 07:33:44;;;;;;;;;63.75;49.75;;;;;3.49;67.82;99283.84;5096128;27;45337;-79
2023/03/05 07:36:10;;;;;;;;;68.50;51.00;;;;;3.55;68.00;99288.13;5095849;27;45368;-79
2023/03/05 07:38:36;;;;;;;;;62.25;48.75;;;;;3.60;67.68;99286.34;5094156;27;47405;-80
2023/03/05 07:41:10;;;;;;;;;67.75;51.00;;;;;3.66;67.33;99287.16;5095709;27;45484;-79
2023/03/05 07:43:36;;;;;;;;;67.50;50.50;;;;;3.74;67.51;99287.94;5095883;27;45383;-80
2023/03/05 07:46:10;;;;;;;;;68.25;52.00;;;;;3.82;67.35;99285.25;5095724;27;45382;-79
2023/03/05 07:48:36;;;;;;;;;70.25;51.75;;;;;3.89;67.07;99286.03;5095680;27;45613;-79
2023/03/05 07:51:11;;;;;;;;;71.00;50.75;;;;;3.97;66.82;99290.31;5095477;27;45434;-79
2023/03/05 07:53:36;;;;;;;;;69.00;52.67;;;;;4.07;66.60;99298.88;5094270;27;45446;-80
2023/03/05 07:56:10;;;;;;;;;70.25;52.50;;;;;4.16;66.39;99290.97;5095508;27;45443;-79
2023/03/05 07:58:36;;;;;;;;;69.25;51.75;;;;;4.25;66.50;99296.06;5095149;27;45522;-79
2023/03/05 08:01:03;;;;;;;;;61.25;47.75;;;;;4.31;66.02;99292.53;5094845;27;45541;-80
2023/03/05 08:03:28;;;;;;;;;73.25;51.25;;;;;4.32;65.94;99292.50;5095580;27;45442;-80
2023/03/05 08:05:58;;;;;;;;;61.75;50.00;;;;;4.33;65.85;99289.03;5095406;27;45373;-79
2023/03/05 08:08:28;;;;;;;;;65.33;51.00;;;;;4.37;65.68;99282.00;5110491;27;46825;-80
2023/03/05 08:10:54;;;;;;;;;67.75;48.00;;;;;4.40;65.83;99281.97;5094928;27;45419;-79
2023/03/05 08:13:27;;;;;;;;;64.00;52.00;;;;;4.45;65.67;99278.41;5095187;27;45862;-80
2023/03/05 08:15:59;;;;;;;;;65.33;51.33;;;;;4.57;65.69;99274.78;5110949;27;45374;-80
2023/03/05 08:18:34;;;;;;;;;64.67;48.33;;;;;4.69;65.61;99277.19;5082145;27;46391;-77
2023/03/05 08:21:00;;;;;;;;;64.33;48.67;;;;;4.81;65.17;99268.34;5093680;27;45567;-80
2023/03/05 08:23:26;;;;;;;;;61.67;50.00;;;;;4.95;64.84;99275.97;5094938;27;45597;-80
2023/03/05 08:25:52;;;;;;;;;69.00;53.75;;;;;5.06;64.84;99266.22;5093534;27;45473;-78
2023/03/05 08:28:18;;;;;;;;;60.00;48.67;;;;;5.18;64.61;99258.22;5094811;27;45381;-80
2023/03/05 08:30:47;;;;;;;;;58.33;45.00;;;;;5.28;64.32;99262.38;5092881;27;45349;-80
2023/03/05 08:33:16;;;;;;;;;73.75;56.75;;;;;5.36;63.75;99255.28;5094985;27;45520;-80
2023/03/05 08:35:45;;;;;;;;;66.67;50.67;;;;;5.47;64.12;99248.13;5093920;27;45497;-80
2023/03/05 08:38:10;;;;;;;;;67.00;52.50;;;;;5.61;63.71;99250.47;5093926;27;45366;-79
2023/03/05 08:40:36;;;;;;;;;63.75;48.75;;;;;5.78;63.74;99248.41;5093707;27;45459;-80
2023/03/05 08:43:03;;;;;;;;;63.00;47.00;;;;;5.93;63.43;99242.06;5096018;27;45300;-80
2023/03/05 08:45:29;;;;;;;;;72.50;55.50;;;;;6.08;63.27;99233.03;5096680;27;45387;-79
2023/03/05 08:47:56;;;;;;;;;69.00;49.33;;;;;6.20;63.11;99223.16;5098099;27;45361;-80
2023/03/05 08:50:22;;;;;;;;;72.50;55.25;;;;;6.38;62.97;99226.28;5098295;27;45537;-80
2023/03/05 08:52:48;;;;;;;;;71.00;55.75;;;;;6.50;63.17;99226.91;5098496;27;45491;-80
2023/03/05 08:55:13;;;;;;;;;70.75;52.00;;;;;6.62;62.89;99224.00;5097486;27;45342;-80
2023/03/05 08:57:39;;;;;;;;;79.25;58.25;;;;;6.74;63.13;99216.75;5098040;27;46181;-80
2023/03/05 09:00:06;;;;;;;;;74.25;54.75;;;;;6.83;62.81;99217.44;5097961;27;45315;-80
2023/03/05 09:02:31;;;;;;;;;67.50;54.25;;;;;6.97;62.04;99217.94;5096711;27;45439;-80
2023/03/05 09:04:57;;;;;;;;;79.25;59.25;;;;;7.08;62.32;99220.31;5097591;27;45379;-79
2023/03/05 09:07:22;;;;;;;;;72.25;54.25;;;;;7.15;61.96;99214.03;5097266;27;45487;-81
2023/03/05 09:09:48;;;;;;;;;80.00;56.25;;;;;7.26;61.99;99214.59;5095394;27;45762;-78
2023/03/05 09:12:14;;;;;;;;;69.00;50.75;;;;;7.38;62.11;99213.41;5098324;27;45582;-80
2023/03/05 09:14:40;;;;;;;;;73.25;57.00;;;;;7.48;61.86;99214.94;5097980;27;45434;-78
2023/03/05 09:17:08;;;;;;;;;75.25;56.25;;;;;7.57;62.05;99219.91;5095671;27;46809;-79
2023/03/05 09:19:44;;;;;;;;;76.75;59.25;;;;;7.64;61.61;99220.63;5095659;27;45563;-79
2023/03/05 09:22:09;;;;;;;;;76.50;59.00;;;;;7.70;61.21;99213.47;5097189;27;45440;-79
2023/03/05 09:24:35;;;;;;;;;72.25;55.50;;;;;7.81;61.37;99212.28;5096954;27;45459;-80
2023/03/05 09:27:00;;;;;;;;;81.00;60.25;;;;;7.81;60.78;99217.53;5097227;27;45413;-78
2023/03/05 09:29:27;;;;;;;;;66.67;51.67;;;;;7.81;59.21;99217.53;5097591;27;45320;-79
2023/03/05 09:31:52;;;;;;;;;71.50;53.50;;;;;7.68;59.77;99206.53;5097313;27;45338;-79
2023/03/05 09:34:18;;;;;;;;;75.00;55.25;;;;;7.60;59.67;99203.25;5097473;27;45498;-79
2023/03/05 09:36:43;;;;;;;;;73.00;51.00;;;;;7.58;59.09;99208.53;5097532;27;45458;-79
2023/03/05 09:39:09;;;;;;;;;66.00;50.00;;;;;7.50;59.09;99209.63;5095507;27;45763;-78
2023/03/05 09:41:56;;;;;;;;;70.50;53.50;;;;;7.45;59.35;99201.03;5097688;27;45306;-79
2023/03/05 09:44:33;;;;;;;;;69.50;53.75;;;;;7.45;59.54;99196.63;5082679;27;45471;-79
2023/03/05 09:47:08;;;;;;;;;76.75;56.50;;;;;7.52;59.44;99186.84;5095171;27;46652;-80
2023/03/05 09:49:45;;;;;;;;;68.00;53.50;;;;;7.52;58.79;99194.72;5097001;27;45382;-79
2023/03/05 09:52:39;;;;;;;;;69.33;53.00;;;;;7.44;59.12;99183.56;5095708;27;45436;-80
2023/03/05 09:55:13;;;;;;;;;75.67;53.67;;;;;7.42;58.81;99183.59;5089944;27;45548;-79
2023/03/05 09:57:42;;;;;;;;;71.67;52.67;;;;;7.43;58.72;99169.59;5095569;27;45405;-80
2023/03/05 10:00:26;;;;;;;;;69.00;56.00;;;;;7.38;59.32;99162.72;5096162;27;45437;-81
2023/03/05 10:02:57;;;;;;;;;71.00;54.25;;;;;7.34;59.18;99164.59;5097155;27;45388;-81
2023/03/05 10:06:00;;;;;;;;;63.00;51.00;;;;;7.22;58.90;99173.63;5097074;27;45404;-81
2023/03/05 10:08:36;;;;;;;;;70.25;52.25;;;;;7.03;59.23;99172.41;5096376;27;46454;-80
2023/03/05 10:11:12;;;;;;;;;73.25;53.00;;;;;6.95;59.81;99169.94;5096737;27;45502;-81
2023/03/05 10:13:41;;;;;;;;;72.25;55.00;;;;;6.90;59.71;99152.59;5084259;27;45407;-81
2023/03/05 10:16:35;;;;;;;;;71.25;52.25;;;;;6.86;60.06;99158.84;5096370;27;45436;-80
2023/03/05 10:19:04;;;;;;;;;71.00;54.25;;;;;6.75;59.62;99150.38;5096446;27;45411;-80
2023/03/05 10:21:45;;;;;;;;;70.33;55.00;;;;;6.63;60.10;99143.66;5096464;27;45398;-81
2023/03/05 10:24:17;;;;;;;;;72.50;52.75;;;;;6.49;60.41;99138.75;5096589;27;45371;-81
2023/03/05 10:26:51;;;;;;;;;80.50;60.50;;;;;6.41;60.79;99138.06;5097081;27;45423;-80
2023/03/05 10:29:55;;;;;;;;;72.00;56.00;;;;;6.38;60.83;99130.28;5096680;27;46086;-81
2023/03/05 10:32:53;;;;;;;;;73.25;55.50;;;;;6.36;61.20;99129.47;5094666;27;45584;-80
2023/03/05 10:35:43;;;;;;;;;78.00;55.00;;;;;6.36;61.29;99126.84;5071045;27;45453;-80
2023/03/05 10:38:45;;;;;;;;;81.75;58.25;;;;;6.37;61.43;99123.31;5084024;27;45323;-80
2023/03/05 10:41:32;;;;;;;;;76.75;59.00;;;;;6.35;61.60;99117.28;5081228;27;48242;-80
2023/03/05 10:44:17;;;;;;;;;77.75;57.75;;;;;6.36;61.86;99118.16;5095711;27;45350;-80
2023/03/05 10:46:45;;;;;;;;;74.00;56.25;;;;;6.38;61.67;99108.47;5096173;27;45334;-80
2023/03/05 10:49:13;;;;;;;;;81.75;60.00;;;;;6.42;61.61;99105.75;5094329;27;45422;-80
2023/03/05 10:51:51;;;;;;;;;71.75;55.75;;;;;6.49;61.54;99106.47;5095324;27;45822;-81
2023/03/05 10:54:17;;;;;;;;;77.00;58.00;;;;;6.53;61.85;99102.91;5095428;27;45310;-80
2023/03/05 10:56:42;;;;;;;;;78.75;62.00;;;;;6.57;61.62;99101.91;5094162;27;45301;-79
2023/03/05 10:59:07;;;;;;;;;66.75;52.25;;;;;6.63;61.62;99096.53;5095970;27;45420;-79
2023/03/05 11:01:33;;;;;;;;;74.50;58.25;;;;;6.71;61.60;99097.19;5097944;27;45481;-80
2023/03/05 11:04:04;;;;;;;;;72.50;54.75;;;;;6.73;61.64;99091.91;5097734;27;45364;-81
2023/03/05 11:06:47;;;;;;;;;65.50;49.75;;;;;6.74;61.47;99088.38;5099740;27;45463;-81
2023/03/05 11:09:27;;;;;;;;;72.50;53.75;;;;;6.77;61.74;99072.59;5094664;27;45366;-81
2023/03/05 11:12:08;;;;;;;;;76.50;57.00;;;;;6.85;61.58;99076.75;5081982;27;46550;-80
2023/03/05 11:14:37;;;;;;;;;76.75;58.75;;;;;6.93;61.48;99063.44;5095301;27;45512;-81
2023/03/05 11:17:44;;;;;;;;;73.00;54.00;;;;;7.03;61.19;99066.69;5094428;27;45361;-81
2023/03/05 11:20:30;;;;;;;;;73.00;55.25;;;;;7.17;61.08;99052.31;5081782;27;45408;-81
2023/03/05 11:23:08;;;;;;;;;78.00;55.25;;;;;7.25;60.92;99045.06;5094197;27;47853;-81
2023/03/05 11:25:55;;;;;;;;;77.00;59.00;;;;;7.32;60.27;99054.50;5095545;27;45549;-81
2023/03/05 11:28:23;;;;;;;;;74.50;56.25;;;;;7.35;60.59;99043.94;5084894;27;45492;-80
2023/03/05 11:30:57;;;;;;;;;67.00;51.50;;;;;7.42;60.13;99038.50;5093951;27;45392;-80